メインページ
METAR-TAF:

METAR-TAF

空港 :

ウォータータウン, ニューヨーク, アメリカ合衆国

緯度: 43-59-31N, 経度: 076-01-18W, 海抜: 99m

現時点の気象観測

当レポートは11分前の16:56(UTC)に作成
西/南西の風 11kt
気温 26°C
湿度 74%
気圧 1009 hPa
視程: 16.1km
高度6000ftの雲はほとんどない

METAR: KART 211656Z AUTO 24011KT 10SM FEW060 26/21 A2981 RMK AO2 SLP087 T02610211

時間: 13:07 (17:07 UTC)

予報

当レポートは3時間2分前の14:05(UTC)に作成
予報は21日の 14時(UTC)から 22日の 12時(UTC)まで有効
西/南西の風 10kt
視程: 10km
高度2500ftの雲は散在している
21日の 1700時(UTC)から
西/南西の風 14kt
視程: 10km
高度20000ftの雲は散在している
22日の 0100時(UTC)から
南西の風 5kt
視程: 10km
高度25000ftの雲は散在している

TAF: KART 211405Z 2114/2212 24010KT P6SM SCT025 FM211700 25014KT P6SM SCT200 FM220100 22005KT P6SM SCT250

4,000以上の空港の気象観測と天気予報(METAR報とTAF報)

利用可能な観測所は地図上に黄色い丸と赤い丸で示す。

丸の上にカーソルを重ねると観測所名を参照できる。

次にクリックすると気象観測と天気予報を参照できる。

マップの切り替え:黒色「×」印の緑ボタンをクリックして拡大、「-」印の緑ボタンをクリックして縮小、緑色の三角印をクリックして隣りの地図に切り替え


METAR-TAF: